Hooversville, Pennsylvania
Current Conditions -  °F | °C
As of 2:54 PM on Saturday 25 Oct 2014 (Local Time) from KJST Reporting Station
Broken Clouds Broken Clouds  
Wind Chill: 59°   Ceiling: 4400
Heat Index: 59°   Visibility: 10mi
Dew Point: 45°   Wind: 15mph
Humidity: 60%   Direction: 240°WSW
Pressure: 29.81"   Gusts: 25mph
Location:  40.15°N, 78.91°W
Report Text: KJST 251854Z AUTO 24013G22KT 10SM BKN044 15/07 A2981 RMK AO2 PK WND 26026/1800 SLP094 T01500072
Loading
Personal Weather Stations






























Interactive Weather Map
Tropical Storm Tracking
New forecast layout! Learn more

10-Day Weather Forecast

Advertisements
Track Severe Weather on mobile